Time;durP1;ratioP1;P1;durP2;ratioP2;P2;SDS_P1;SDS_P2;PMS_P1;PMS_P2;Temp;Humidity;BMP_temperature;BMP_pressure;BME280_temperature;BME280_humidity;BME280_pressure;Samples;Min_cycle;Max_cycle;Signal;HPM_P1;HPM_P2
2021/08/01 00:01:59;;;;;;;9.48;4.57;;;;;;;12.77;100.00;97177.78;4991740;28;20043;-80
2021/08/01 00:04:25;;;;;;;11.68;4.80;;;;;;;12.94;100.00;97172.91;4991533;28;20081;-81
2021/08/01 00:06:52;;;;;;;11.45;5.65;;;;;;;13.02;100.00;97165.75;4975975;28;20062;-81
2021/08/01 00:09:18;;;;;;;14.13;5.75;;;;;;;13.11;100.00;97167.22;5012670;28;20046;-81
2021/08/01 00:11:45;;;;;;;10.80;5.50;;;;;;;13.08;100.00;97159.75;4995815;28;20550;-81
2021/08/01 00:14:11;;;;;;;14.88;6.05;;;;;;;13.09;100.00;97158.63;4994654;28;20053;-83
2021/08/01 00:16:38;;;;;;;10.93;5.60;;;;;;;13.02;100.00;97149.44;4992675;28;20050;-82
2021/08/01 00:19:05;;;;;;;12.55;5.63;;;;;;;12.91;100.00;97145.59;4993481;28;20282;-82
2021/08/01 00:21:31;;;;;;;13.50;6.20;;;;;;;12.94;100.00;97142.22;4975357;28;20050;-81
2021/08/01 00:23:58;;;;;;;11.57;5.00;;;;;;;12.89;100.00;97142.44;4992553;28;20050;-82
2021/08/01 00:26:25;;;;;;;8.20;4.93;;;;;;;12.82;100.00;97144.94;4981456;28;20046;-82
2021/08/01 00:28:52;;;;;;;9.15;4.72;;;;;;;12.91;100.00;97142.88;4991198;28;20158;-82
2021/08/01 00:31:18;;;;;;;9.40;4.95;;;;;;;12.95;100.00;97128.31;4991166;28;20137;-81
2021/08/01 00:33:45;;;;;;;8.00;4.40;;;;;;;12.99;100.00;97131.09;4991146;28;20442;-81
2021/08/01 00:36:12;;;;;;;8.15;4.60;;;;;;;13.09;100.00;97131.47;4992444;28;20416;-81
2021/08/01 00:38:38;;;;;;;9.52;4.65;;;;;;;13.14;100.00;97130.44;4994046;28;20093;-81
2021/08/01 00:41:07;;;;;;;8.85;4.53;;;;;;;13.12;100.00;97124.53;4992026;28;20113;-81
2021/08/01 00:43:34;;;;;;;6.82;4.40;;;;;;;13.06;100.00;97104.13;4977459;28;20466;-82
2021/08/01 00:46:00;;;;;;;7.70;4.82;;;;;;;13.15;100.00;97104.03;4997344;28;20038;-82
2021/08/01 00:48:27;;;;;;;11.57;5.03;;;;;;;13.19;100.00;97107.69;4978168;28;20103;-81
2021/08/01 00:50:54;;;;;;;8.23;4.57;;;;;;;13.26;100.00;97107.88;4993051;28;20050;-81
2021/08/01 00:53:21;;;;;;;11.07;5.05;;;;;;;13.29;100.00;97107.94;4994024;28;20050;-81
2021/08/01 00:55:47;;;;;;;7.60;4.55;;;;;;;13.30;100.00;97104.09;4993687;28;20041;-83
2021/08/01 00:58:14;;;;;;;8.40;4.57;;;;;;;13.30;100.00;97098.66;4977370;28;20050;-81
2021/08/01 01:01:05;;;;;;;9.32;5.05;;;;;;;13.24;100.00;97089.16;4997674;28;20053;-81
2021/08/01 01:03:45;;;;;;;10.13;5.25;;;;;;;13.17;100.00;97091.69;5003414;28;20050;-82
2021/08/01 01:06:36;;;;;;;10.50;5.28;;;;;;;13.15;100.00;97099.41;4995267;28;20053;-81
2021/08/01 01:09:20;;;;;;;10.90;5.03;;;;;;;13.09;100.00;97107.00;4991850;28;20046;-81
2021/08/01 01:11:51;;;;;;;9.02;5.32;;;;;;;13.11;100.00;97112.88;4992689;28;20049;-82
2021/08/01 01:14:22;;;;;;;10.88;5.35;;;;;;;13.24;100.00;97110.16;4992517;28;20100;-83
2021/08/01 01:16:55;;;;;;;9.50;5.38;;;;;;;13.23;100.00;97101.19;4997344;28;20042;-83
2021/08/01 01:19:45;;;;;;;10.75;5.10;;;;;;;13.20;100.00;97080.13;4997206;28;20049;-83
2021/08/01 01:22:23;;;;;;;7.75;5.05;;;;;;;13.30;100.00;97095.16;4980853;28;20057;-82
2021/08/01 01:24:52;;;;;;;11.20;4.97;;;;;;;13.21;100.00;97087.16;4994347;28;20050;-82
2021/08/01 01:27:31;;;;;;;9.02;4.95;;;;;;;13.20;100.00;97098.38;4997608;28;20435;-82
2021/08/01 01:30:02;;;;;;;10.10;5.13;;;;;;;13.19;100.00;97103.00;5013845;28;20052;-82
2021/08/01 01:32:38;;;;;;;8.40;5.07;;;;;;;13.23;100.00;97111.28;5010644;28;20415;-83
2021/08/01 01:35:14;;;;;;;9.85;5.10;;;;;;;13.22;100.00;97105.03;5010839;28;20049;-83
2021/08/01 01:37:43;;;;;;;10.73;5.57;;;;;;;13.33;100.00;97119.75;5010165;28;20044;-81
2021/08/01 01:40:11;;;;;;;16.83;5.30;;;;;;;13.33;100.00;97110.78;5015770;28;20046;-83
2021/08/01 01:42:40;;;;;;;10.85;5.10;;;;;;;13.39;100.00;97112.13;4980391;28;20081;-83
2021/08/01 01:45:07;;;;;;;6.93;4.45;;;;;;;13.43;100.00;97124.69;4995604;28;20046;-83
2021/08/01 01:47:34;;;;;;;8.45;4.75;;;;;;;13.39;100.00;97123.00;5013481;28;20057;-82
2021/08/01 01:50:01;;;;;;;9.32;4.82;;;;;;;13.48;100.00;97137.25;5013611;28;20113;-84
2021/08/01 01:52:30;;;;;;;9.45;4.68;;;;;;;13.50;100.00;97130.31;5014040;28;20042;-81
2021/08/01 01:54:57;;;;;;;10.88;5.13;;;;;;;13.57;100.00;97138.69;5016053;28;20052;-83
2021/08/01 01:57:23;;;;;;;12.32;5.80;;;;;;;13.56;100.00;97131.66;5017740;28;20646;-82
2021/08/01 02:00:21;;;;;;;11.10;5.88;;;;;;;13.57;100.00;97125.09;5011671;28;20234;-80
2021/08/01 02:02:47;;;;;;;8.63;5.85;;;;;;;13.64;100.00;97136.16;5026611;28;20045;-81
2021/08/01 02:05:14;;;;;;;12.30;5.43;;;;;;;13.67;100.00;97137.41;5002274;28;20494;-82
2021/08/01 02:07:41;;;;;;;10.65;5.93;;;;;;;13.64;100.00;97121.78;5001789;28;20042;-82
2021/08/01 02:10:13;;;;;;;11.52;5.18;;;;;;;13.74;100.00;97130.22;5002753;28;20046;-83
2021/08/01 02:12:50;;;;;;;12.13;5.28;;;;;;;13.79;100.00;97139.25;5003651;28;20197;-82
2021/08/01 02:15:19;;;;;;;16.98;5.60;;;;;;;13.79;100.00;97129.19;5018921;28;20057;-84
2021/08/01 02:18:07;;;;;;;12.15;4.97;;;;;;;13.86;100.00;97120.44;5019299;28;20049;-83
2021/08/01 02:20:43;;;;;;;8.52;4.47;;;;;;;13.90;100.00;97121.31;5005122;28;20077;-81
2021/08/01 02:23:15;;;;;;;10.23;4.75;;;;;;;13.87;100.00;97125.50;4988006;28;20046;-83
2021/08/01 02:25:43;;;;;;;8.18;4.50;;;;;;;13.79;100.00;97104.69;4984367;28;20081;-81
2021/08/01 02:28:10;;;;;;;8.32;4.68;;;;;;;13.78;100.00;97088.72;5018223;28;20042;-82
2021/08/01 02:30:38;;;;;;;11.43;5.00;;;;;;;13.90;100.00;97103.06;5000048;28;20092;-83
2021/08/01 02:33:06;;;;;;;14.65;4.88;;;;;;;13.92;100.00;97095.31;5017762;28;20085;-83
2021/08/01 02:35:35;;;;;;;7.38;4.70;;;;;;;13.95;100.00;97091.13;5015192;28;20266;-84
2021/08/01 02:38:03;;;;;;;7.65;4.72;;;;;;;13.98;100.00;97093.13;5009500;28;20045;-82
2021/08/01 02:40:34;;;;;;;7.70;4.38;;;;;;;14.04;100.00;97083.59;5031982;28;20053;-81
2021/08/01 02:43:05;;;;;;;10.23;4.90;;;;;;;13.92;100.00;97094.53;5031343;28;20139;-82
2021/08/01 02:45:34;;;;;;;11.23;4.82;;;;;;;13.87;100.00;97095.56;5023977;28;20483;-83
2021/08/01 02:48:02;;;;;;;7.70;4.68;;;;;;;13.75;100.00;97106.53;5019356;28;20050;-83
2021/08/01 02:50:32;;;;;;;9.82;4.72;;;;;;;13.74;100.00;97099.50;5019141;28;20046;-84
2021/08/01 02:53:02;;;;;;;11.50;4.80;;;;;;;13.77;100.00;97098.00;5020124;28;20042;-81
2021/08/01 02:55:34;;;;;;;8.82;4.75;;;;;;;13.80;100.00;97089.16;5011639;28;20073;-80
2021/08/01 02:58:04;;;;;;;9.75;4.43;;;;;;;13.78;100.00;97080.56;5002560;28;20046;-83
2021/08/01 03:00:34;;;;;;;9.68;5.10;;;;;;;13.71;100.00;97092.84;5018137;28;20479;-83
2021/08/01 03:03:04;;;;;;;10.35;4.65;;;;;;;13.68;100.00;97088.09;5017539;28;20065;-83
2021/08/01 03:05:31;;;;;;;5.93;4.40;;;;;;;13.66;100.00;97087.66;5017336;28;20049;-82
2021/08/01 03:07:59;;;;;;;9.77;4.70;;;;;;;13.73;100.00;97095.19;4983620;28;20072;-83
2021/08/01 03:10:25;;;;;;;7.50;5.30;;;;;;;13.74;100.00;97083.97;5000037;28;20049;-84
2021/08/01 03:12:52;;;;;;;9.73;4.82;;;;;;;13.81;100.00;97080.63;5016122;28;20135;-82
2021/08/01 03:15:19;;;;;;;9.40;4.65;;;;;;;13.85;100.00;97086.97;5021484;28;20045;-83
2021/08/01 03:17:45;;;;;;;7.50;4.88;;;;;;;13.86;100.00;97083.09;5019977;28;20100;-83
2021/08/01 03:20:14;;;;;;;12.85;5.28;;;;;;;13.73;100.00;97089.75;5000695;28;20674;-83
2021/08/01 03:22:41;;;;;;;9.43;4.70;;;;;;;13.54;100.00;97082.28;4999028;28;20046;-82
2021/08/01 03:25:07;;;;;;;9.82;4.75;;;;;;;13.60;100.00;97074.66;5018838;28;20534;-83
2021/08/01 03:27:34;;;;;;;9.50;4.70;;;;;;;13.63;100.00;97082.88;5019681;28;20064;-83
2021/08/01 03:30:00;;;;;;;7.72;4.70;;;;;;;13.59;100.00;97078.50;5002513;28;20108;-81
2021/08/01 03:32:28;;;;;;;8.68;4.82;;;;;;;13.47;100.00;97064.97;4977817;28;20038;-81
2021/08/01 03:34:55;;;;;;;7.70;4.35;;;;;;;13.44;100.00;97073.81;4994728;28;20104;-82
2021/08/01 03:37:26;;;;;;;7.80;4.60;;;;;;;13.43;100.00;97078.47;4977242;28;20045;-82
2021/08/01 03:39:54;;;;;;;11.38;4.55;;;;;;;13.45;100.00;97069.94;4995187;28;20050;-82
2021/08/01 03:42:20;;;;;;;10.65;4.78;;;;;;;13.50;100.00;97073.22;4977244;28;20455;-82
2021/08/01 03:44:47;;;;;;;7.82;5.25;;;;;;;13.62;100.00;97064.22;4994050;28;20043;-83
2021/08/01 03:47:14;;;;;;;10.88;4.88;;;;;;;13.65;100.00;97069.72;4994109;28;20081;-82
2021/08/01 03:49:43;;;;;;;13.18;4.88;;;;;;;13.73;100.00;97071.50;5006535;28;20104;-82
2021/08/01 03:52:11;;;;;;;7.82;4.40;;;;;;;13.77;100.00;97066.16;4984738;28;20081;-83
2021/08/01 03:54:38;;;;;;;8.40;5.00;;;;;;;13.67;100.00;97061.25;4998777;28;20077;-83
2021/08/01 03:57:05;;;;;;;10.57;4.97;;;;;;;13.70;100.00;97066.75;4963785;28;20130;-84
2021/08/01 03:59:35;;;;;;;7.63;4.47;;;;;;;13.81;100.00;97071.72;4978797;28;20046;-82
2021/08/01 04:02:03;;;;;;;10.63;4.68;;;;;;;13.91;100.00;97079.34;4994709;28;20074;-82
2021/08/01 04:04:31;;;;;;;11.07;4.78;;;;;;;13.90;100.00;97062.22;4996550;28;20043;-82
2021/08/01 04:06:57;;;;;;;10.10;4.72;;;;;;;13.97;100.00;97067.84;4982284;28;20050;-82
2021/08/01 04:09:24;;;;;;;8.68;4.50;;;;;;;14.05;100.00;97075.06;5000894;28;20065;-82
2021/08/01 04:11:50;;;;;;;7.63;4.50;;;;;;;14.12;100.00;97074.44;5000624;28;20444;-82
2021/08/01 04:14:17;;;;;;;8.38;4.53;;;;;;;14.10;100.00;97069.34;4979663;28;20057;-82
2021/08/01 04:16:43;;;;;;;9.27;4.65;;;;;;;14.17;100.00;97069.53;4995810;28;20062;-82
2021/08/01 04:19:13;;;;;;;9.25;5.03;;;;;;;14.18;100.00;97067.59;4996899;28;20050;-83
2021/08/01 04:21:40;;;;;;;12.77;4.97;;;;;;;14.19;100.00;97059.09;4995550;28;20073;-83
2021/08/01 04:24:07;;;;;;;8.45;5.35;;;;;;;14.15;100.00;97071.00;4978785;28;20141;-83
2021/08/01 04:26:34;;;;;;;9.95;5.65;;;;;;;14.16;100.00;97073.41;4995624;28;20054;-83
2021/08/01 04:29:01;;;;;;;10.38;4.03;;;;;;;14.10;100.00;97068.56;4995543;28;20050;-83
2021/08/01 04:31:28;;;;;;;6.32;4.20;;;;;;;14.11;100.00;97064.69;4995123;28;20058;-83
2021/08/01 04:33:54;;;;;;;10.00;4.10;;;;;;;14.01;100.00;97062.50;4982213;28;20148;-82
2021/08/01 04:36:21;;;;;;;9.98;4.70;;;;;;;14.06;100.00;97068.47;4984453;28;20050;-82
2021/08/01 04:38:47;;;;;;;8.32;4.28;;;;;;;14.03;100.00;97071.91;4979272;28;20042;-83
2021/08/01 04:41:14;;;;;;;7.85;4.70;;;;;;;14.01;100.00;97068.75;4996539;28;20049;-82
2021/08/01 04:43:41;;;;;;;6.53;4.28;;;;;;;13.91;100.00;97047.47;4978111;28;20042;-84
2021/08/01 04:46:09;;;;;;;8.15;4.32;;;;;;;14.09;100.00;97067.00;5003914;28;20064;-81
2021/08/01 04:48:35;;;;;;;6.05;4.10;;;;;;;14.18;100.00;97067.59;4996724;28;20050;-83
2021/08/01 04:51:02;;;;;;;8.90;4.45;;;;;;;14.36;100.00;97074.28;5011346;28;20503;-84
2021/08/01 04:53:28;;;;;;;9.25;4.30;;;;;;;14.39;100.00;97054.53;4995844;28;20042;-84
2021/08/01 04:55:55;;;;;;;9.73;4.97;;;;;;;14.46;100.00;97057.41;4995663;28;20051;-82
2021/08/01 04:58:21;;;;;;;7.22;4.43;;;;;;;14.60;100.00;97068.66;4962676;28;20092;-83
2021/08/01 05:00:48;;;;;;;7.72;5.10;;;;;;;14.76;100.00;97071.34;4996396;28;20081;-84
2021/08/01 05:03:15;;;;;;;9.90;4.85;;;;;;;14.74;100.00;97059.97;4980605;28;20041;-83
2021/08/01 05:05:41;;;;;;;9.32;4.35;;;;;;;14.87;100.00;97066.91;5012832;28;20077;-83
2021/08/01 05:08:09;;;;;;;9.35;4.57;;;;;;;14.81;100.00;97062.88;4997704;28;20038;-84
2021/08/01 05:10:35;;;;;;;13.60;5.07;;;;;;;14.81;100.00;97071.06;5000099;28;20082;-84
2021/08/01 05:13:06;;;;;;;6.88;4.47;;;;;;;14.88;100.00;97077.47;4995566;28;20109;-83
2021/08/01 05:15:33;;;;;;;8.82;4.20;;;;;;;14.91;100.00;97065.06;4995154;28;20046;-84
2021/08/01 05:18:02;;;;;;;8.23;4.13;;;;;;;14.91;100.00;97065.06;4993035;28;20543;-83
2021/08/01 05:20:30;;;;;;;8.93;4.10;;;;;;;14.90;100.00;97056.09;4998731;28;20045;-84
2021/08/01 05:22:56;;;;;;;8.65;4.05;;;;;;;15.08;100.00;97070.09;4984432;28;20038;-81
2021/08/01 05:25:23;;;;;;;7.80;4.50;;;;;;;15.15;100.00;97064.78;5010260;23;20065;-81
2021/08/01 05:27:50;;;;;;;11.30;4.80;;;;;;;15.18;100.00;97060.53;4971981;28;20714;-82
2021/08/01 05:30:16;;;;;;;13.75;5.20;;;;;;;15.10;100.00;97065.06;4938627;28;20050;-82
2021/08/01 05:32:43;;;;;;;9.85;4.85;;;;;;;15.16;100.00;97060.91;4953949;28;20043;-82
2021/08/01 05:35:09;;;;;;;10.55;5.00;;;;;;;15.22;100.00;97059.50;4957219;28;20460;-81
2021/08/01 05:37:36;;;;;;;9.82;4.60;;;;;;;15.24;100.00;97053.66;4980734;28;20046;-78
2021/08/01 05:40:03;;;;;;;9.95;4.80;;;;;;;15.16;100.00;97063.63;4979005;28;20043;-81
2021/08/01 05:42:33;;;;;;;9.02;5.07;;;;;;;15.25;100.00;97060.72;4979043;28;20053;-84
2021/08/01 05:45:01;;;;;;;9.45;5.30;;;;;;;15.30;100.00;97039.41;4993342;28;20050;-84
2021/08/01 05:47:32;;;;;;;9.07;4.82;;;;;;;15.47;100.00;97040.91;4996172;28;20101;-83
2021/08/01 05:49:59;;;;;;;12.45;5.30;;;;;;;15.43;100.00;97029.88;4990149;28;20050;-85
2021/08/01 05:52:34;;;;;;;8.18;5.07;;;;;;;15.53;100.00;97012.97;4975950;28;20049;-82
2021/08/01 05:55:05;;;;;;;7.43;4.50;;;;;;;15.71;100.00;97034.34;4972224;28;20109;-85
2021/08/01 05:57:31;;;;;;;7.57;5.05;;;;;;;15.82;100.00;97032.59;4965772;28;20043;-82
2021/08/01 06:00:00;;;;;;;8.23;4.82;;;;;;;15.92;100.00;97024.59;4958083;28;20054;-84
2021/08/01 06:02:27;;;;;;;9.52;5.22;;;;;;;16.02;100.00;97017.72;4957911;28;20058;-83
2021/08/01 06:04:54;;;;;;;9.70;4.57;;;;;;;16.04;100.00;97008.03;4965946;28;20054;-83
2021/08/01 06:07:21;;;;;;;9.73;4.82;;;;;;;16.17;100.00;97022.28;4968435;28;20418;-84
2021/08/01 06:09:51;;;;;;;8.05;4.57;;;;;;;16.37;100.00;97022.97;4979069;28;20050;-82
2021/08/01 06:12:17;;;;;;;10.43;4.68;;;;;;;16.47;100.00;97027.78;4980567;28;20039;-83
2021/08/01 06:14:48;;;;;;;7.10;4.10;;;;;;;16.56;100.00;97020.16;4975704;28;20054;-83
2021/08/01 06:17:18;;;;;;;6.85;4.40;;;;;;;16.78;100.00;97032.97;4958893;28;20069;-81
2021/08/01 06:19:52;;;;;;;9.20;4.85;;;;;;;16.73;100.00;97027.81;4957450;28;20047;-82
2021/08/01 06:22:24;;;;;;;11.25;4.40;;;;;;;16.77;100.00;97034.94;4972109;28;20046;-82
2021/08/01 06:24:57;;;;;;;11.00;4.85;;;;;;;16.42;100.00;97047.22;4997845;28;20038;-82
2021/08/01 06:27:24;;;;;;;8.93;4.47;;;;;;;16.47;100.00;97038.72;5020745;28;20045;-85
2021/08/01 06:29:50;;;;;;;7.22;4.50;;;;;;;16.50;100.00;97040.72;5035651;28;20037;-83
2021/08/01 06:32:17;;;;;;;12.05;4.93;;;;;;;16.67;100.00;97051.19;5017733;28;20093;-83
2021/08/01 06:34:44;;;;;;;8.45;4.65;;;;;;;16.38;100.00;97049.13;5033488;28;20059;-84
2021/08/01 06:37:12;;;;;;;9.00;5.05;;;;;;;16.21;100.00;97042.22;5033540;28;20049;-84
2021/08/01 06:39:43;;;;;;;6.78;4.07;;;;;;;16.40;100.00;97047.63;5016706;28;20049;-84
2021/08/01 06:42:10;;;;;;;11.68;4.20;;;;;;;16.54;100.00;97047.06;5034268;28;20099;-81
2021/08/01 06:44:40;;;;;;;9.95;4.22;;;;;;;16.75;100.00;97047.38;5036605;28;20057;-85
2021/08/01 06:47:07;;;;;;;8.10;3.60;;;;;;;16.93;100.00;97051.13;5057927;28;20048;-87
2021/08/01 06:49:33;;;;;;;8.32;4.18;;;;;;;16.95;100.00;97048.06;5058549;28;20025;-89
2021/08/01 06:52:23;;;;;;;8.77;4.32;;;;;;;17.06;100.00;97062.66;5018981;28;20042;-84
2021/08/01 06:54:50;;;;;;;8.38;3.90;;;;;;;17.08;100.00;97069.34;5021887;28;20052;-86
2021/08/01 06:57:21;;;;;;;6.90;3.97;;;;;;;17.18;100.00;97056.94;5008089;28;20049;-85
2021/08/01 06:59:48;;;;;;;7.15;4.00;;;;;;;17.08;100.00;97055.66;5021204;28;20059;-85
2021/08/01 07:02:17;;;;;;;13.23;4.00;;;;;;;17.29;100.00;97060.63;5014695;28;20045;-83
2021/08/01 07:04:44;;;;;;;7.22;3.47;;;;;;;17.53;100.00;97067.56;5037793;28;20648;-84
2021/08/01 07:07:14;;;;;;;4.63;2.58;;;;;;;17.50;100.00;97051.88;5038345;28;20079;-83
2021/08/01 07:09:41;;;;;;;10.77;3.00;;;;;;;17.43;100.00;97053.34;5056772;28;20120;-85
2021/08/01 07:12:08;;;;;;;4.72;2.53;;;;;;;17.57;100.00;97041.81;5021533;28;20454;-83
2021/08/01 07:14:35;;;;;;;7.22;2.72;;;;;;;17.64;100.00;97052.06;5038859;28;20324;-84
2021/08/01 07:17:03;;;;;;;7.28;2.75;;;;;;;17.60;100.00;97043.78;5038541;28;20120;-84
2021/08/01 07:20:06;;;;;;;;;;;;;;;17.73;100.00;97064.25;5023274;28;20531;-83
2021/08/01 07:22:39;;;;;;;6.50;2.53;;;;;;;17.78;100.00;97063.16;5054112;28;19956;-84
2021/08/01 07:25:12;;;;;;;8.80;2.70;;;;;;;17.87;100.00;97058.16;4979833;28;1155564;-85
2021/08/01 07:27:44;;;;;;;4.60;2.80;;;;;;;17.97;100.00;97057.47;5038348;28;20106;-85
2021/08/01 07:30:11;;;;;;;8.88;3.22;;;;;;;17.87;100.00;97055.41;5023087;28;20064;-84
2021/08/01 07:32:38;;;;;;;5.95;3.28;;;;;;;17.88;100.00;97063.28;5046284;28;20041;-84
2021/08/01 07:35:07;;;;;;;8.30;3.13;;;;;;;17.51;100.00;97054.22;5042328;28;20127;-85
2021/08/01 07:37:37;;;;;;;6.68;3.03;;;;;;;17.20;100.00;97049.16;5023723;28;20071;-84
2021/08/01 07:40:05;;;;;;;5.28;3.25;;;;;;;17.08;100.00;97052.13;5023106;28;20472;-85
2021/08/01 07:42:37;;;;;;;9.18;3.10;;;;;;;16.92;100.00;97049.56;5023700;28;20536;-82
2021/08/01 07:45:10;;;;;;;6.00;3.38;;;;;;;16.80;100.00;97049.81;5039391;28;20513;-82
2021/08/01 07:47:39;;;;;;;5.85;4.00;;;;;;;16.72;100.00;97059.06;5051325;28;20071;-81
2021/08/01 07:50:06;;;;;;;6.15;3.95;;;;;;;16.74;100.00;97057.53;5041732;28;20052;-84
2021/08/01 07:52:34;;;;;;;9.55;4.30;;;;;;;16.71;100.00;97060.22;5058438;28;20128;-84
2021/08/01 07:55:01;;;;;;;7.28;4.00;;;;;;;16.83;100.00;97070.91;5037361;28;20052;-86
2021/08/01 07:57:32;;;;;;;10.35;4.15;;;;;;;16.90;100.00;97065.56;5041838;28;20064;-85
2021/08/01 08:00:04;;;;;;;7.50;4.28;;;;;;;16.88;100.00;97056.94;5026074;28;20076;-85
2021/08/01 08:02:31;;;;;;;11.65;4.50;;;;;;;17.01;100.00;97071.97;5028953;28;20073;-85
2021/08/01 08:04:58;;;;;;;8.20;4.38;;;;;;;16.98;100.00;97063.72;5048259;28;20049;-86
2021/08/01 08:07:24;;;;;;;7.32;4.15;;;;;;;16.98;100.00;97072.69;5068535;28;20043;-81
2021/08/01 08:09:51;;;;;;;8.27;4.07;;;;;;;17.11;100.00;97079.50;5070489;28;20025;-83
2021/08/01 08:12:18;;;;;;;8.52;4.20;;;;;;;16.94;100.00;97077.34;5050879;28;20072;-83
2021/08/01 08:14:45;;;;;;;8.00;4.30;;;;;;;16.91;100.00;97074.53;5053381;28;20116;-83
2021/08/01 08:17:17;;;;;;;7.18;4.18;;;;;;;16.83;100.00;97070.91;5049966;28;20079;-83
2021/08/01 08:19:47;;;;;;;6.28;3.70;;;;;;;16.73;100.00;97055.16;5037112;28;20053;-81
2021/08/01 08:22:14;;;;;;;9.80;4.45;;;;;;;16.64;100.00;97082.78;5040194;28;20028;-85
2021/08/01 08:24:43;;;;;;;9.48;5.07;;;;;;;16.73;100.00;97083.28;5045134;28;20137;-84
2021/08/01 08:27:10;;;;;;;10.68;4.53;;;;;;;16.86;100.00;97077.59;5057841;28;20045;-83
2021/08/01 08:29:37;;;;;;;6.15;4.30;;;;;;;16.83;100.00;97084.59;5039716;28;20040;-85
2021/08/01 08:32:04;;;;;;;9.48;4.53;;;;;;;16.70;100.00;97078.53;5038906;28;20045;-81
2021/08/01 08:34:32;;;;;;;7.80;4.50;;;;;;;16.66;100.00;97085.91;5020608;28;20045;-83
2021/08/01 08:37:00;;;;;;;9.40;4.50;;;;;;;16.47;100.00;97107.03;5054423;28;20037;-84
2021/08/01 08:39:34;;;;;;;11.48;4.10;;;;;;;16.23;100.00;97089.09;5021828;28;20057;-83
2021/08/01 08:42:02;;;;;;;8.82;4.57;;;;;;;16.12;100.00;97091.63;5036944;28;20044;-84
2021/08/01 08:44:29;;;;;;;12.82;4.53;;;;;;;15.98;100.00;97085.13;5021281;28;20110;-83
2021/08/01 08:46:59;;;;;;;9.10;4.10;;;;;;;15.99;100.00;97117.53;5036460;28;20069;-87
2021/08/01 08:49:35;;;;;;;5.85;4.18;;;;;;;15.83;100.00;97105.91;5056617;28;20104;-86
2021/08/01 08:52:06;;;;;;;11.35;4.50;;;;;;;15.88;100.00;97107.56;5037819;28;20470;-85
2021/08/01 08:54:48;;;;;;;6.95;4.95;;;;;;;15.91;100.00;97106.84;5021531;28;20041;-84
2021/08/01 08:57:30;;;;;;;10.65;5.28;;;;;;;16.01;100.00;97114.44;5038142;28;20120;-84
2021/08/01 09:00:06;;;;;;;7.70;4.75;;;;;;;16.12;100.00;97110.75;5049187;28;20065;-83
2021/08/01 09:02:35;;;;;;;9.65;5.15;;;;;;;16.09;100.00;97111.47;5037729;28;20047;-83
2021/08/01 09:05:04;;;;;;;10.50;5.68;;;;;;;16.33;100.00;97115.00;5037719;28;20045;-83
2021/08/01 09:07:31;;;;;;;10.25;5.35;;;;;;;16.23;100.00;97107.41;5038605;28;20143;-81
2021/08/01 09:10:01;;;;;;;9.85;5.95;;;;;;;16.23;100.00;97110.16;5058053;28;20049;-84
2021/08/01 09:12:29;;;;;;;10.18;6.05;;;;;;;16.40;100.00;97115.91;5036275;28;20046;-83
2021/08/01 09:15:23;;;;;;;12.95;6.65;;;;;;;16.53;100.00;97119.28;5026102;28;20037;-81
2021/08/01 09:17:57;;;;;;;15.07;6.35;;;;;;;16.34;100.00;97117.34;5005669;28;20568;-81
2021/08/01 09:20:26;;;;;;;17.98;6.20;;;;;;;16.30;100.00;97121.19;4991975;28;20134;-79
2021/08/01 09:22:58;;;;;;;11.93;6.20;;;;;;;16.32;100.00;97127.88;5012036;28;20041;-82
2021/08/01 09:25:36;;;;;;;14.18;6.82;;;;;;;16.37;100.00;97126.78;5006439;28;20053;-81
2021/08/01 09:28:14;;;;;;;16.95;7.03;;;;;;;16.32;100.00;97127.06;5026079;28;20049;-81
2021/08/01 09:30:50;;;;;;;11.55;6.07;;;;;;;16.32;100.00;97113.41;5026086;28;20048;-80
2021/08/01 09:33:31;;;;;;;13.45;6.05;;;;;;;16.18;100.00;97124.91;5002516;28;20104;-80
2021/08/01 09:36:04;;;;;;;12.38;6.18;;;;;;;16.30;100.00;97127.44;5001629;28;20056;-82
2021/08/01 09:38:43;;;;;;;17.80;6.65;;;;;;;16.28;100.00;97132.50;5009500;28;20049;-81
2021/08/01 09:41:11;;;;;;;10.02;5.68;;;;;;;16.31;100.00;97117.31;5020484;28;20055;-81
2021/08/01 09:43:56;;;;;;;10.95;5.78;;;;;;;16.29;100.00;97119.59;5033946;28;20037;-82
2021/08/01 09:46:39;;;;;;;13.00;6.43;;;;;;;16.32;100.00;97140.72;5026638;28;20068;-81
2021/08/01 09:49:18;;;;;;;13.65;6.65;;;;;;;16.32;100.00;97119.66;4993082;28;20289;-80
2021/08/01 09:51:52;;;;;;;13.60;5.95;;;;;;;16.33;100.00;97121.25;5035857;28;20049;-82
2021/08/01 09:54:22;;;;;;;12.38;6.05;;;;;;;16.29;100.00;97117.66;5019391;28;20052;-80
2021/08/01 09:56:59;;;;;;;16.02;5.75;;;;;;;16.27;100.00;97113.72;5055271;28;20412;-80
2021/08/01 09:59:28;;;;;;;13.43;5.40;;;;;;;16.33;100.00;97109.53;5053734;28;20049;-80
2021/08/01 10:01:57;;;;;;;11.85;5.90;;;;;;;16.38;100.00;97101.84;5015719;28;20045;-82
2021/08/01 10:04:28;;;;;;;15.10;6.70;;;;;;;16.46;100.00;97119.13;5014333;28;20060;-82
2021/08/01 10:07:16;;;;;;;10.73;5.72;;;;;;;16.60;100.00;97106.50;5013730;28;20128;-82
2021/08/01 10:09:44;;;;;;;11.43;4.85;;;;;;;16.57;100.00;97103.75;5011605;28;20069;-84
2021/08/01 10:12:13;;;;;;;11.00;4.90;;;;;;;16.75;100.00;97110.25;5005492;28;20049;-83
2021/08/01 10:14:42;;;;;;;10.65;5.55;;;;;;;16.80;100.00;97096.28;5013378;28;20037;-82
2021/08/01 10:17:08;;;;;;;9.20;5.30;;;;;;;16.84;100.00;97102.59;5031739;28;20097;-82
2021/08/01 10:19:36;;;;;;;11.45;5.90;;;;;;;16.88;100.00;97108.88;5007599;28;20056;-81
2021/08/01 10:22:10;;;;;;;15.27;5.68;;;;;;;16.79;100.00;97103.69;5007143;28;20052;-84
2021/08/01 10:24:56;;;;;;;13.43;5.40;;;;;;;16.65;100.00;97102.66;5016073;28;20832;-87
2021/08/01 10:27:27;;;;;;;9.27;5.28;;;;;;;16.71;100.00;97095.75;5009947;28;20826;-83
2021/08/01 10:29:55;;;;;;;14.25;5.28;;;;;;;16.75;100.00;97085.63;4997212;28;20053;-82
2021/08/01 10:32:26;;;;;;;11.35;5.15;;;;;;;16.76;100.00;97089.97;5008336;28;20049;-82
2021/08/01 10:35:16;;;;;;;13.70;4.95;;;;;;;16.73;100.00;97083.28;4998636;28;20136;-82
2021/08/01 10:37:44;;;;;;;6.07;3.78;;;;;;;16.83;100.00;97078.34;5005889;28;20038;-81
2021/08/01 10:40:19;;;;;;;7.57;4.90;;;;;;;16.97;100.00;97079.34;5023327;28;20057;-81
2021/08/01 10:42:49;;;;;;;;;;;;;;;17.22;100.00;97088.66;5020491;28;20076;-81
2021/08/01 10:45:19;;;;;;;12.50;4.82;;;;;;;17.37;100.00;97084.94;5052907;28;19925;-81
2021/08/01 10:47:51;;;;;;;9.35;4.82;;;;;;;17.62;100.00;97092.69;5020257;28;20056;-81
2021/08/01 10:50:26;;;;;;;10.05;5.20;;;;;;;17.47;100.00;97080.78;5052873;28;20103;-81
2021/08/01 10:53:18;;;;;;;7.30;4.18;;;;;;;17.87;100.00;97085.53;5036238;28;20048;-81
2021/08/01 10:55:49;;;;;;;9.05;5.45;;;;;;;17.95;100.00;97085.25;5020643;28;20555;-81
2021/08/01 10:58:17;;;;;;;9.23;5.50;;;;;;;17.97;100.00;97084.88;5052699;28;20044;-82
2021/08/01 11:00:56;;;;;;;10.00;5.85;;;;;;;17.85;100.00;97083.19;5019320;28;20053;-83
2021/08/01 11:03:27;;;;;;;8.38;5.60;;;;;;;17.67;100.00;97078.69;5035885;28;20072;-82
2021/08/01 11:05:56;;;;;;;12.20;6.15;;;;;;;17.57;100.00;97088.34;5019045;28;20098;-81
2021/08/01 11:08:23;;;;;;;8.68;5.75;;;;;;;17.85;100.00;97096.09;5036849;28;20060;-78
2021/08/01 11:11:19;;;;;;;13.48;5.60;;;;;;;17.69;100.00;97076.34;5054423;28;20044;-82
2021/08/01 11:13:47;;;;;;;11.95;6.30;;;;;;;17.75;100.00;97094.81;5019295;28;20057;-79
2021/08/01 11:16:35;;;;;;;10.43;6.25;;;;;;;17.89;100.00;97091.44;5000040;28;20054;-83
2021/08/01 11:19:32;;;;;;;8.80;6.53;;;;;;;17.89;100.00;97091.44;5000399;28;20064;-81
2021/08/01 11:22:02;;;;;;;11.48;6.35;;;;;;;18.01;100.00;97088.44;5028027;28;20047;-83
2021/08/01 11:24:28;;;;;;;10.38;6.95;;;;;;;18.17;100.00;97078.00;5020198;28;20040;-82
2021/08/01 11:27:04;;;;;;;11.75;9.15;;;;;;;18.17;100.00;97080.75;5020101;28;20057;-83
2021/08/01 11:29:31;;;;;;;;;;;;;;;18.00;100.00;97097.81;5021901;28;20053;-83
2021/08/01 11:32:08;;;;;;;17.05;14.00;;;;;;;17.77;100.00;97097.97;5020218;28;19925;-81
2021/08/01 11:34:36;;;;;;;18.58;14.10;;;;;;;17.61;100.00;97093.84;5036518;28;20059;-81
2021/08/01 11:37:20;;;;;;;18.45;13.65;;;;;;;17.66;100.00;97096.25;5037421;28;20624;-83